Time;durP1;ratioP1;P1;durP2;ratioP2;P2;SDS_P1;SDS_P2;PMS_P1;PMS_P2;Temp;Humidity;BMP_temperature;BMP_pressure;BME280_temperature;BME280_humidity;BME280_pressure;Samples;Min_cycle;Max_cycle;Signal;HPM_P1;HPM_P2
2021/08/18 00:01:21;;;;;;;6.40;4.43;;;;;;;-142.25;100.00;58004.16;5099805;28;20316;-64
2021/08/18 00:03:47;;;;;;;4.65;3.58;;;;;;;-142.25;100.00;58004.16;5100502;28;20032;-65
2021/08/18 00:06:13;;;;;;;4.10;2.85;;;;;;;-142.25;100.00;58004.16;5100190;28;20585;-65
2021/08/18 00:08:43;;;;;;;5.35;3.35;;;;;;;-142.25;100.00;58004.16;5101651;28;20258;-65
2021/08/18 00:11:09;;;;;;;4.35;3.40;;;;;;;-142.25;100.00;58004.16;5099428;28;20031;-65
2021/08/18 00:13:34;;;;;;;3.92;2.83;;;;;;;-142.25;100.00;58004.16;5102774;28;20032;-64
2021/08/18 00:16:01;;;;;;;5.25;2.95;;;;;;;-142.25;100.00;58004.16;5100851;28;20031;-64
2021/08/18 00:18:27;;;;;;;3.42;2.83;;;;;;;-142.25;100.00;58004.16;5101894;28;20277;-64
2021/08/18 00:20:53;;;;;;;5.07;3.03;;;;;;;-142.25;100.00;58004.16;5101167;28;20035;-64
2021/08/18 00:23:18;;;;;;;4.78;3.47;;;;;;;-142.25;100.00;58004.16;5100529;28;20288;-64
2021/08/18 00:25:44;;;;;;;4.28;3.00;;;;;;;-142.25;100.00;58004.16;5102668;28;20081;-64
2021/08/18 00:28:09;;;;;;;3.95;2.90;;;;;;;-142.25;100.00;58004.16;5100676;28;20031;-64
2021/08/18 00:30:35;;;;;;;2.60;2.40;;;;;;;-142.25;100.00;58004.16;5101942;28;20035;-66
2021/08/18 00:33:01;;;;;;;4.28;2.97;;;;;;;-142.25;100.00;58004.16;5098651;28;20032;-66
2021/08/18 00:35:27;;;;;;;2.85;2.55;;;;;;;-142.25;100.00;58004.16;5100215;28;20048;-66
2021/08/18 00:37:52;;;;;;;4.40;3.10;;;;;;;-142.25;100.00;58004.16;5098613;28;20361;-64
2021/08/18 00:40:18;;;;;;;4.30;3.28;;;;;;;-142.25;100.00;58004.16;5101242;28;20030;-64
2021/08/18 00:42:45;;;;;;;4.03;2.80;;;;;;;-142.25;100.00;58004.16;5098921;28;20034;-64
2021/08/18 00:45:11;;;;;;;4.15;3.20;;;;;;;-142.25;100.00;58004.16;5102168;28;20035;-64
2021/08/18 00:47:41;;;;;;;4.47;3.17;;;;;;;-142.25;100.00;58004.16;5097550;28;20031;-65
2021/08/18 00:50:07;;;;;;;5.38;3.55;;;;;;;-142.25;100.00;58004.16;5109019;28;20032;-64
2021/08/18 00:52:32;;;;;;;5.82;4.00;;;;;;;-142.25;100.00;58004.16;5099953;28;20289;-64
2021/08/18 00:54:58;;;;;;;3.15;2.85;;;;;;;-142.25;100.00;58004.16;5098376;28;20028;-64
2021/08/18 00:57:23;;;;;;;3.47;2.95;;;;;;;-142.25;100.00;58004.16;5100228;28;20082;-64
2021/08/18 00:59:50;;;;;;;5.35;3.53;;;;;;;-142.25;100.00;58004.16;5098263;28;20463;-64
2021/08/18 01:02:16;;;;;;;3.72;2.80;;;;;;;-142.25;100.00;58004.16;5098735;28;20350;-65
2021/08/18 01:04:42;;;;;;;3.65;3.22;;;;;;;-142.25;100.00;58004.16;5099662;28;20080;-64
2021/08/18 01:07:08;;;;;;;4.97;2.80;;;;;;;-142.25;100.00;58004.16;5099424;28;20392;-64
2021/08/18 01:09:34;;;;;;;10.77;3.53;;;;;;;-142.25;100.00;58004.16;5101308;28;20135;-64
2021/08/18 01:12:00;;;;;;;5.53;3.22;;;;;;;-142.25;100.00;58004.16;5098016;28;20036;-64
2021/08/18 01:14:26;;;;;;;3.42;2.97;;;;;;;-142.25;100.00;58004.16;5101179;28;20088;-64
2021/08/18 01:16:51;;;;;;;5.00;3.28;;;;;;;-142.25;100.00;58004.16;5100462;28;20071;-64
2021/08/18 01:19:19;;;;;;;4.07;3.67;;;;;;;-142.25;100.00;58004.16;5100272;28;20478;-65
2021/08/18 01:21:46;;;;;;;3.90;2.80;;;;;;;-142.25;100.00;58004.16;5097203;28;20136;-64
2021/08/18 01:24:12;;;;;;;6.20;3.20;;;;;;;-142.25;100.00;58004.16;5101407;28;20032;-64
2021/08/18 01:26:39;;;;;;;6.35;3.67;;;;;;;-142.25;100.00;58004.16;5099879;28;20059;-65
2021/08/18 01:29:06;;;;;;;4.55;3.05;;;;;;;-142.25;100.00;58004.16;5098397;28;20040;-64
2021/08/18 01:31:31;;;;;;;5.07;3.33;;;;;;;-142.25;100.00;58004.16;5098115;28;20039;-64
2021/08/18 01:34:02;;;;;;;6.70;2.90;;;;;;;-142.25;100.00;58004.16;5097562;28;20117;-65
2021/08/18 01:36:29;;;;;;;5.22;3.20;;;;;;;-142.25;100.00;58004.16;5098190;28;20092;-64
2021/08/18 01:39:06;;;;;;;3.92;3.33;;;;;;;-142.25;100.00;58004.16;5098613;28;20032;-65
2021/08/18 01:41:32;;;;;;;5.97;3.83;;;;;;;-142.25;100.00;58004.16;5099094;28;20027;-65
2021/08/18 01:43:58;;;;;;;4.28;3.35;;;;;;;-142.25;100.00;58004.16;5098120;28;20042;-64
2021/08/18 01:46:24;;;;;;;3.92;3.47;;;;;;;-142.25;100.00;58004.16;5099242;28;20369;-64
2021/08/18 01:48:49;;;;;;;4.40;3.03;;;;;;;-142.25;100.00;58004.16;5099468;28;20077;-64
2021/08/18 01:51:15;;;;;;;5.13;4.07;;;;;;;-142.25;100.00;58004.16;5101929;28;20319;-65
2021/08/18 01:53:44;;;;;;;3.65;2.90;;;;;;;-142.25;100.00;58004.16;5097748;28;20409;-65
2021/08/18 01:56:12;;;;;;;3.83;3.45;;;;;;;-142.25;100.00;58004.16;5097803;28;20391;-64
2021/08/18 01:58:38;;;;;;;4.50;3.72;;;;;;;-142.25;100.00;58004.16;5098746;28;20028;-64
2021/08/18 02:01:08;;;;;;;6.47;4.32;;;;;;;-142.25;100.00;58004.16;5097946;28;20112;-65
2021/08/18 02:03:34;;;;;;;5.80;4.00;;;;;;;-142.25;100.00;58004.16;5100666;28;20046;-64
2021/08/18 02:05:59;;;;;;;4.20;3.70;;;;;;;-142.25;100.00;58004.16;5095598;28;20323;-65
2021/08/18 02:08:25;;;;;;;4.97;3.38;;;;;;;-142.25;100.00;58004.16;5099347;28;20031;-65
2021/08/18 02:10:50;;;;;;;4.47;3.33;;;;;;;-142.25;100.00;58004.16;5097726;28;20036;-65
2021/08/18 02:13:16;;;;;;;3.20;2.90;;;;;;;-142.25;100.00;58004.16;5100019;28;20047;-64
2021/08/18 02:15:42;;;;;;;5.18;3.13;;;;;;;-142.25;100.00;58004.16;5100236;28;20028;-65
2021/08/18 02:18:09;;;;;;;3.95;2.78;;;;;;;-142.25;100.00;58004.16;5097813;28;20078;-64
2021/08/18 02:20:37;;;;;;;3.42;3.10;;;;;;;-142.25;100.00;58004.16;5097967;28;20277;-65
2021/08/18 02:23:04;;;;;;;4.65;3.10;;;;;;;-142.25;100.00;58004.16;5098336;28;20130;-65
2021/08/18 02:25:29;;;;;;;5.10;3.22;;;;;;;-142.25;100.00;58004.16;5098762;28;20480;-64
2021/08/18 02:27:55;;;;;;;3.70;3.22;;;;;;;-142.25;100.00;58004.16;5100623;28;20039;-64
2021/08/18 02:30:25;;;;;;;3.80;3.28;;;;;;;-142.25;100.00;58004.16;5098536;28;20059;-65
2021/08/18 02:32:51;;;;;;;3.10;2.58;;;;;;;-142.25;100.00;58004.16;5096985;28;20151;-65
2021/08/18 02:35:18;;;;;;;4.18;3.15;;;;;;;-142.25;100.00;58004.16;5098562;28;20451;-65
2021/08/18 02:37:44;;;;;;;5.82;3.45;;;;;;;-142.25;100.00;58004.16;5097158;28;20040;-64
2021/08/18 02:40:11;;;;;;;4.80;2.83;;;;;;;-142.25;100.00;58004.16;5096987;28;20042;-64
2021/08/18 02:42:37;;;;;;;5.10;3.42;;;;;;;-142.25;100.00;58004.16;5100148;28;20169;-64
2021/08/18 02:45:04;;;;;;;8.77;4.53;;;;;;;-142.25;100.00;58004.16;5098421;28;20035;-64
2021/08/18 02:47:29;;;;;;;3.90;3.15;;;;;;;-142.25;100.00;58004.16;5096892;28;20032;-64
2021/08/18 02:49:55;;;;;;;3.53;3.13;;;;;;;-142.25;100.00;58004.16;5098586;28;20044;-64
2021/08/18 02:52:20;;;;;;;5.82;2.53;;;;;;;-142.25;100.00;58004.16;5099352;28;20050;-64
2021/08/18 02:54:45;;;;;;;2.90;2.67;;;;;;;-142.25;100.00;58004.16;5101494;28;20028;-64
2021/08/18 02:57:11;;;;;;;2.72;2.53;;;;;;;-142.25;100.00;58004.16;5099207;28;20087;-65
2021/08/18 02:59:37;;;;;;;4.88;2.53;;;;;;;-142.25;100.00;58004.16;5095831;28;20330;-64
2021/08/18 03:02:02;;;;;;;3.53;2.20;;;;;;;-142.25;100.00;58004.16;5096013;28;20046;-64
2021/08/18 03:04:28;;;;;;;2.63;2.30;;;;;;;-142.25;100.00;58004.16;5094658;28;20064;-64
2021/08/18 03:06:54;;;;;;;2.97;2.40;;;;;;;-142.25;100.00;58004.16;5097521;28;20032;-64
2021/08/18 03:09:21;;;;;;;4.55;2.72;;;;;;;-142.25;100.00;58004.16;5099517;28;20463;-64
2021/08/18 03:11:47;;;;;;;8.75;3.22;;;;;;;-142.25;100.00;58004.16;5097205;28;20031;-64
2021/08/18 03:14:12;;;;;;;2.55;2.35;;;;;;;-142.25;100.00;58004.16;5100750;28;20031;-64
2021/08/18 03:16:38;;;;;;;3.22;2.80;;;;;;;-142.25;100.00;58004.16;5097031;28;20020;-65
2021/08/18 03:19:03;;;;;;;4.00;2.47;;;;;;;-142.25;100.00;58004.16;5098574;28;20216;-65
2021/08/18 03:21:29;;;;;;;3.63;2.33;;;;;;;-142.25;100.00;58004.16;5096934;28;20032;-65
2021/08/18 03:23:54;;;;;;;3.50;2.58;;;;;;;-142.25;100.00;58004.16;5102080;28;20305;-65
2021/08/18 03:26:19;;;;;;;4.00;2.30;;;;;;;-142.25;100.00;58004.16;5099978;28;20034;-64
2021/08/18 03:28:45;;;;;;;2.97;2.60;;;;;;;-142.25;100.00;58004.16;5098167;28;20111;-64
2021/08/18 03:31:10;;;;;;;2.88;2.15;;;;;;;-142.25;100.00;58004.16;5097731;28;20077;-65
2021/08/18 03:33:36;;;;;;;4.22;3.03;;;;;;;-142.25;100.00;58004.16;5098703;28;20061;-65
2021/08/18 03:36:01;;;;;;;3.38;3.05;;;;;;;-142.25;100.00;58004.16;5101531;28;20059;-65
2021/08/18 03:38:27;;;;;;;2.58;2.30;;;;;;;-142.25;100.00;58004.16;5099644;28;20104;-65
2021/08/18 03:40:53;;;;;;;3.20;2.30;;;;;;;-142.25;100.00;58004.16;5099110;28;20027;-63
2021/08/18 03:43:22;;;;;;;2.88;2.60;;;;;;;-142.25;100.00;58004.16;5096722;28;20019;-63
2021/08/18 03:45:47;;;;;;;4.20;2.55;;;;;;;-142.25;100.00;58004.16;5098888;28;20047;-63
2021/08/18 03:48:13;;;;;;;4.28;2.33;;;;;;;-142.25;100.00;58004.16;5098351;28;20161;-63
2021/08/18 03:50:38;;;;;;;2.70;2.13;;;;;;;-142.25;100.00;58004.16;5100210;28;20054;-63
2021/08/18 03:53:03;;;;;;;3.75;2.55;;;;;;;-142.25;100.00;58004.16;5098955;28;20046;-63
2021/08/18 03:55:29;;;;;;;3.17;2.03;;;;;;;-142.25;100.00;58004.16;5097388;28;20055;-63
2021/08/18 03:57:55;;;;;;;2.88;2.50;;;;;;;-142.25;100.00;58004.16;5097450;28;20036;-63
2021/08/18 04:00:21;;;;;;;3.00;2.65;;;;;;;-142.25;100.00;58004.16;5101016;28;20103;-63
2021/08/18 04:02:46;;;;;;;3.15;2.38;;;;;;;-142.25;100.00;58004.16;5102327;28;20304;-63
2021/08/18 04:05:12;;;;;;;4.38;2.55;;;;;;;-142.25;100.00;58004.16;5101158;28;20093;-63
2021/08/18 04:07:37;;;;;;;5.97;2.40;;;;;;;-142.25;100.00;58004.16;5101189;28;20783;-64
2021/08/18 04:10:05;;;;;;;5.47;2.53;;;;;;;-142.25;100.00;58004.16;5102148;28;20035;-63
2021/08/18 04:12:30;;;;;;;3.92;2.75;;;;;;;-142.25;100.00;58004.16;5100588;28;20130;-63
2021/08/18 04:14:56;;;;;;;2.60;2.30;;;;;;;-142.25;100.00;58004.16;5101252;28;20042;-63
2021/08/18 04:17:22;;;;;;;3.90;2.58;;;;;;;-142.25;100.00;58004.16;5101329;28;20060;-63
2021/08/18 04:19:49;;;;;;;2.80;2.55;;;;;;;-142.25;100.00;58004.16;5102054;28;20036;-63
2021/08/18 04:22:14;;;;;;;3.28;2.88;;;;;;;-142.25;100.00;58004.16;5100183;28;20360;-64
2021/08/18 04:24:40;;;;;;;3.40;2.88;;;;;;;-142.25;100.00;58004.16;5100648;28;20019;-63
2021/08/18 04:27:05;;;;;;;4.22;2.58;;;;;;;-142.25;100.00;58004.16;5102692;28;20028;-64
2021/08/18 04:29:30;;;;;;;3.00;2.42;;;;;;;-142.25;100.00;58004.16;5098270;28;20150;-64
2021/08/18 04:31:57;;;;;;;4.13;2.97;;;;;;;-142.25;100.00;58004.16;5107199;28;20028;-64
2021/08/18 04:34:23;;;;;;;2.92;2.63;;;;;;;-142.25;100.00;58004.16;5100048;28;20063;-64
2021/08/18 04:36:48;;;;;;;2.78;2.50;;;;;;;-142.25;100.00;58004.16;5101347;28;20445;-64
2021/08/18 04:39:14;;;;;;;4.75;2.90;;;;;;;-142.25;100.00;58004.16;5099763;28;20057;-64
2021/08/18 04:41:39;;;;;;;6.18;2.97;;;;;;;-142.25;100.00;58004.16;5101866;28;20284;-64
2021/08/18 04:44:05;;;;;;;3.55;2.65;;;;;;;-142.25;100.00;58004.16;5101252;28;20047;-64
2021/08/18 04:46:30;;;;;;;2.88;2.58;;;;;;;-142.25;100.00;58004.16;5100630;28;20031;-64
2021/08/18 04:48:56;;;;;;;4.00;3.00;;;;;;;-142.25;100.00;58004.16;5101053;28;20032;-63
2021/08/18 04:51:21;;;;;;;4.72;2.60;;;;;;;-142.25;100.00;58004.16;5101176;28;20069;-64
2021/08/18 04:53:46;;;;;;;5.15;2.63;;;;;;;-142.25;100.00;58004.16;5104084;28;20435;-66
2021/08/18 04:56:13;;;;;;;4.75;2.55;;;;;;;-142.25;100.00;58004.16;5102907;28;20413;-65
2021/08/18 04:58:38;;;;;;;3.08;2.78;;;;;;;-142.25;100.00;58004.16;5098127;28;20107;-66
2021/08/18 05:01:03;;;;;;;3.10;2.70;;;;;;;-142.25;100.00;58004.16;5100328;28;20027;-64
2021/08/18 05:03:29;;;;;;;3.90;2.92;;;;;;;-142.25;100.00;58004.16;5101339;28;20020;-65
2021/08/18 05:05:54;;;;;;;3.80;3.30;;;;;;;-142.25;100.00;58004.16;5102907;28;20027;-67
2021/08/18 05:08:20;;;;;;;3.80;2.50;;;;;;;-142.25;100.00;58004.16;5103667;28;20027;-65
2021/08/18 05:10:46;;;;;;;3.30;2.67;;;;;;;-142.25;100.00;58004.16;5101751;28;20143;-66
2021/08/18 05:13:11;;;;;;;2.72;2.53;;;;;;;-142.25;100.00;58004.16;5102340;28;20060;-65
2021/08/18 05:15:37;;;;;;;2.85;2.40;;;;;;;-142.25;100.00;58004.16;5097971;28;20031;-66
2021/08/18 05:18:02;;;;;;;4.35;3.17;;;;;;;-142.25;100.00;58004.16;5099307;28;20448;-66
2021/08/18 05:20:28;;;;;;;4.00;2.90;;;;;;;-142.25;100.00;58004.16;5101033;28;20058;-66
2021/08/18 05:22:53;;;;;;;6.00;3.20;;;;;;;-142.25;100.00;58004.16;5102901;28;20088;-66
2021/08/18 05:25:19;;;;;;;2.80;2.40;;;;;;;-142.25;100.00;58004.16;5101258;28;20051;-65
2021/08/18 05:27:44;;;;;;;4.30;2.53;;;;;;;-142.25;100.00;58004.16;5102047;28;20031;-65
2021/08/18 05:30:12;;;;;;;7.45;2.85;;;;;;;-142.25;100.00;58004.16;5103356;28;20035;-63
2021/08/18 05:32:38;;;;;;;5.40;2.53;;;;;;;-142.25;100.00;58004.16;5099588;28;20343;-63
2021/08/18 05:35:08;;;;;;;3.80;3.50;;;;;;;-142.25;100.00;58004.16;5101661;28;20052;-67
2021/08/18 05:37:33;;;;;;;4.50;2.92;;;;;;;-142.25;100.00;58004.16;5099379;28;20031;-67
2021/08/18 05:39:59;;;;;;;2.92;2.45;;;;;;;-142.25;100.00;58004.16;5100251;28;20028;-66
2021/08/18 05:42:24;;;;;;;3.65;2.78;;;;;;;-142.25;100.00;58004.16;5099992;28;20032;-68
2021/08/18 05:44:50;;;;;;;3.80;3.40;;;;;;;-142.25;100.00;58004.16;5100507;28;20106;-67
2021/08/18 05:47:15;;;;;;;5.45;3.20;;;;;;;-142.25;100.00;58004.16;5099073;28;20055;-66
2021/08/18 05:49:41;;;;;;;4.40;3.10;;;;;;;-142.25;100.00;58004.16;5100800;28;20037;-66
2021/08/18 05:52:06;;;;;;;3.72;2.90;;;;;;;-142.25;100.00;58004.16;5099985;28;20042;-66
2021/08/18 05:54:32;;;;;;;3.95;3.63;;;;;;;-142.25;100.00;58004.16;5100530;28;20105;-66
2021/08/18 05:56:57;;;;;;;3.47;3.10;;;;;;;-142.25;100.00;58004.16;5104194;28;20020;-66
2021/08/18 05:59:23;;;;;;;4.32;3.80;;;;;;;-142.25;100.00;58004.16;5098854;28;20043;-66
2021/08/18 06:01:48;;;;;;;3.28;2.50;;;;;;;-142.25;100.00;58004.16;5098743;28;20042;-67
2021/08/18 06:04:14;;;;;;;3.42;2.90;;;;;;;-142.25;100.00;58004.16;5101678;28;20367;-68
2021/08/18 06:06:39;;;;;;;4.93;2.47;;;;;;;-142.25;100.00;58004.16;5101106;28;20020;-67
2021/08/18 06:09:04;;;;;;;3.47;2.53;;;;;;;-142.25;100.00;58004.16;5098771;28;20036;-67
2021/08/18 06:11:30;;;;;;;4.28;3.05;;;;;;;-142.25;100.00;58004.16;5099756;28;20074;-67
2021/08/18 06:13:55;;;;;;;4.25;3.13;;;;;;;-142.25;100.00;58004.16;5100822;28;20032;-68
2021/08/18 06:16:21;;;;;;;4.22;2.85;;;;;;;-142.25;100.00;58004.16;5100817;28;20027;-67
2021/08/18 06:18:47;;;;;;;5.93;2.88;;;;;;;-142.25;100.00;58004.16;5100435;28;20035;-67
2021/08/18 06:21:13;;;;;;;5.15;3.83;;;;;;;-142.25;100.00;58004.16;5100312;28;20110;-67
2021/08/18 06:23:38;;;;;;;4.30;3.00;;;;;;;-142.25;100.00;58004.16;5099228;28;20115;-68
2021/08/18 06:26:04;;;;;;;3.65;3.17;;;;;;;-142.25;100.00;58004.16;5102830;28;20029;-66
2021/08/18 06:28:29;;;;;;;4.43;3.35;;;;;;;-142.25;100.00;58004.16;5101823;28;20027;-67
2021/08/18 06:30:55;;;;;;;6.93;4.20;;;;;;;-142.25;100.00;58004.16;5098814;28;20030;-67
2021/08/18 06:33:20;;;;;;;5.38;3.47;;;;;;;-142.25;100.00;58004.16;5099137;28;20081;-67
2021/08/18 06:35:46;;;;;;;5.85;3.13;;;;;;;-142.25;100.00;58004.16;5099521;28;20316;-68
2021/08/18 06:38:11;;;;;;;3.70;3.20;;;;;;;-142.25;100.00;58004.16;5101028;28;20131;-67
2021/08/18 06:40:37;;;;;;;7.18;3.78;;;;;;;-142.25;100.00;58004.16;5098739;28;20035;-67
2021/08/18 06:43:03;;;;;;;4.55;3.10;;;;;;;-142.25;100.00;58004.16;5102149;28;20032;-67
2021/08/18 06:45:29;;;;;;;4.65;3.22;;;;;;;-142.25;100.00;58004.16;5098222;28;20107;-67
2021/08/18 06:47:55;;;;;;;4.97;3.17;;;;;;;-142.25;100.00;58004.16;5100124;28;20367;-67
2021/08/18 06:50:21;;;;;;;6.38;3.00;;;;;;;-142.25;100.00;58004.16;5099776;28;20108;-67
2021/08/18 06:52:46;;;;;;;4.97;3.47;;;;;;;-142.25;100.00;58004.16;5098288;28;20036;-67
2021/08/18 06:55:12;;;;;;;3.60;3.20;;;;;;;-142.25;100.00;58004.16;5099099;28;20489;-67
2021/08/18 06:57:37;;;;;;;3.90;3.17;;;;;;;-142.25;100.00;58004.16;5099667;28;20078;-65
2021/08/18 07:00:05;;;;;;;4.25;3.58;;;;;;;-142.25;100.00;58004.16;5098957;28;20481;-66
2021/08/18 07:02:30;;;;;;;4.40;3.78;;;;;;;-142.25;100.00;58004.16;5101257;28;20259;-65
2021/08/18 07:04:56;;;;;;;5.00;3.30;;;;;;;-142.25;100.00;58004.16;5101634;28;20046;-65
2021/08/18 07:07:22;;;;;;;5.20;4.55;;;;;;;-142.25;100.00;58004.16;5099823;28;20038;-66
2021/08/18 07:09:47;;;;;;;4.18;3.53;;;;;;;-142.25;100.00;58004.16;5100342;28;20028;-66
2021/08/18 07:12:13;;;;;;;4.53;3.45;;;;;;;-142.25;100.00;58004.16;5098233;28;20039;-67
2021/08/18 07:14:38;;;;;;;8.40;3.83;;;;;;;-142.25;100.00;58004.16;5098920;28;20032;-66
2021/08/18 07:17:04;;;;;;;5.28;3.85;;;;;;;-142.25;100.00;58004.16;5104044;28;20424;-66
2021/08/18 07:19:29;;;;;;;7.75;3.53;;;;;;;-142.25;100.00;58004.16;5099707;28;20031;-66
2021/08/18 07:21:54;;;;;;;3.85;3.28;;;;;;;-142.25;100.00;58004.16;5098183;28;20380;-66
2021/08/18 07:24:20;;;;;;;5.30;3.78;;;;;;;-142.25;100.00;58004.16;5100699;28;20114;-66
2021/08/18 07:26:45;;;;;;;5.03;3.45;;;;;;;-142.25;100.00;58004.16;5100502;28;20024;-66
2021/08/18 07:29:11;;;;;;;5.40;3.95;;;;;;;-142.25;100.00;58004.16;5099481;28;20059;-66
2021/08/18 07:31:36;;;;;;;5.38;3.92;;;;;;;-142.25;100.00;58004.16;5097581;28;20359;-66
2021/08/18 07:34:02;;;;;;;5.90;3.78;;;;;;;-142.25;100.00;58004.16;5099013;28;20093;-66
2021/08/18 07:36:27;;;;;;;6.28;4.45;;;;;;;-142.25;100.00;58004.16;5103274;28;20032;-67
2021/08/18 07:38:52;;;;;;;6.38;4.47;;;;;;;-142.25;100.00;58004.16;5103702;27;20028;-67
2021/08/18 07:41:18;;;;;;;9.20;5.15;;;;;;;-142.25;100.00;58004.16;5103609;28;20031;-66
2021/08/18 07:43:43;;;;;;;8.68;5.50;;;;;;;-142.25;100.00;58004.16;5101538;28;20409;-66
2021/08/18 07:46:10;;;;;;;12.00;5.53;;;;;;;-142.25;100.00;58004.16;5100939;28;20023;-66
2021/08/18 07:48:35;;;;;;;9.82;5.68;;;;;;;-142.25;100.00;58004.16;5102228;28;20367;-66
2021/08/18 07:51:01;;;;;;;7.80;5.60;;;;;;;-142.25;100.00;58004.16;5104181;28;20032;-67
2021/08/18 07:53:26;;;;;;;8.82;5.22;;;;;;;-142.25;100.00;58004.16;5102274;28;20380;-67
2021/08/18 07:55:52;;;;;;;7.18;5.20;;;;;;;-142.25;100.00;58004.16;5107610;28;20093;-66
2021/08/18 07:58:17;;;;;;;10.75;7.25;;;;;;;-142.25;100.00;58004.16;5104009;28;20147;-67
2021/08/18 08:00:43;;;;;;;11.38;5.78;;;;;;;-142.25;100.00;58004.16;5104567;28;20374;-67
2021/08/18 08:03:09;;;;;;;6.32;5.13;;;;;;;-142.25;100.00;58004.16;5103313;28;20020;-67
2021/08/18 08:05:35;;;;;;;7.70;5.15;;;;;;;-142.25;100.00;58004.16;5101860;28;20019;-67
2021/08/18 08:08:00;;;;;;;6.93;4.93;;;;;;;-142.25;100.00;58004.16;5102358;28;20023;-66
2021/08/18 08:10:26;;;;;;;9.10;5.90;;;;;;;-142.25;100.00;58004.16;5101615;28;20388;-67
2021/08/18 08:12:51;;;;;;;10.18;6.07;;;;;;;-142.25;100.00;58004.16;5101916;28;20058;-66
2021/08/18 08:15:17;;;;;;;7.55;5.05;;;;;;;-142.25;100.00;58004.16;5104336;28;20088;-67
2021/08/18 08:17:43;;;;;;;7.70;5.18;;;;;;;-142.25;100.00;58004.16;5103086;28;20027;-68
2021/08/18 08:20:09;;;;;;;9.02;6.03;;;;;;;-142.25;100.00;58004.16;5101234;28;20032;-67
2021/08/18 08:22:36;;;;;;;7.25;5.30;;;;;;;-142.25;100.00;58004.16;5102109;28;20031;-67
2021/08/18 08:25:02;;;;;;;10.00;6.40;;;;;;;-142.25;100.00;58004.16;5101500;28;20047;-67
2021/08/18 08:27:28;;;;;;;6.85;5.65;;;;;;;-142.25;100.00;58004.16;5098779;28;20119;-68
2021/08/18 08:29:53;;;;;;;7.03;5.00;;;;;;;-142.25;100.00;58004.16;5103417;28;20110;-67
2021/08/18 08:32:19;;;;;;;9.98;5.57;;;;;;;-142.25;100.00;58004.16;5100847;28;20039;-67
2021/08/18 08:34:44;;;;;;;7.32;5.25;;;;;;;-142.25;100.00;58004.16;5102749;28;20062;-67
2021/08/18 08:37:09;;;;;;;6.07;4.50;;;;;;;-142.25;100.00;58004.16;5100405;28;20381;-67
2021/08/18 08:39:35;;;;;;;8.73;5.28;;;;;;;-142.25;100.00;58004.16;5105736;28;20438;-67
2021/08/18 08:42:04;;;;;;;7.65;5.82;;;;;;;-142.25;100.00;58004.16;5104165;28;20299;-67
2021/08/18 08:44:32;;;;;;;6.68;5.38;;;;;;;-142.25;100.00;58004.16;5101027;28;20388;-67
2021/08/18 08:46:59;;;;;;;7.28;5.05;;;;;;;-142.25;100.00;58004.16;5103154;28;20085;-67
2021/08/18 08:49:24;;;;;;;5.55;4.70;;;;;;;-142.25;100.00;58004.16;5104618;28;20028;-66
2021/08/18 08:51:52;;;;;;;8.45;4.90;;;;;;;-142.25;100.00;58004.16;5102126;28;20356;-66
2021/08/18 08:54:19;;;;;;;7.32;5.13;;;;;;;-142.25;100.00;58004.16;5100712;28;20693;-67
2021/08/18 08:56:45;;;;;;;6.85;5.30;;;;;;;-142.25;100.00;58004.16;5102294;28;20032;-67
2021/08/18 08:59:11;;;;;;;6.07;4.60;;;;;;;-142.25;100.00;58004.16;5101650;28;20080;-67
2021/08/18 09:02:03;;;;;;;6.68;5.22;;;;;;;-142.25;100.00;58004.16;5101513;28;20319;-67
2021/08/18 09:04:36;;;;;;;6.43;4.82;;;;;;;-142.25;100.00;58004.16;5099838;28;20027;-67
2021/08/18 09:07:10;;;;;;;5.15;4.65;;;;;;;-142.25;100.00;58004.16;5111206;28;20525;-67
2021/08/18 09:09:38;;;;;;;8.27;5.20;;;;;;;-142.25;100.00;58004.16;5100787;28;20389;-67
2021/08/18 09:12:13;;;;;;;6.03;4.60;;;;;;;-142.25;100.00;58004.16;5098315;28;20031;-67
2021/08/18 09:14:39;;;;;;;5.07;4.22;;;;;;;-142.25;100.00;58004.16;5102769;28;20375;-67
2021/08/18 09:17:30;;;;;;;5.95;4.55;;;;;;;-142.25;100.00;58004.16;5101388;28;20020;-67
2021/08/18 09:20:00;;;;;;;7.93;4.72;;;;;;;-142.25;100.00;58004.16;5101106;28;20028;-67
2021/08/18 09:22:25;;;;;;;11.02;5.53;;;;;;;-142.25;100.00;58004.16;5101361;28;20395;-66
2021/08/18 09:25:08;;;;;;;7.00;5.53;;;;;;;-142.25;100.00;58004.16;5101260;28;20028;-67
2021/08/18 09:27:34;;;;;;;5.75;4.88;;;;;;;-142.25;100.00;58004.16;5100666;28;20246;-66
2021/08/18 09:29:59;;;;;;;5.72;4.40;;;;;;;-142.25;100.00;58004.16;5099840;28;20039;-67
2021/08/18 09:32:32;;;;;;;5.80;4.18;;;;;;;-142.25;100.00;58004.16;5100154;28;20027;-69
2021/08/18 09:35:18;;;;;;;4.80;4.25;;;;;;;-142.25;100.00;58004.16;5099321;28;20071;-67
2021/08/18 09:37:55;;;;;;;5.63;3.40;;;;;;;-142.25;100.00;58004.16;5101020;28;20036;-66
2021/08/18 09:40:39;;;;;;;4.78;4.05;;;;;;;-142.25;100.00;58004.16;5101773;28;20308;-66
2021/08/18 09:43:18;;;;;;;5.30;4.80;;;;;;;-142.25;100.00;58004.16;5100052;28;20077;-66
2021/08/18 09:45:46;;;;;;;5.53;3.72;;;;;;;-142.25;100.00;58004.16;5103579;28;20030;-66
2021/08/18 09:48:12;;;;;;;5.55;3.42;;;;;;;-142.25;100.00;58004.16;5102695;28;20032;-66
2021/08/18 09:50:41;;;;;;;4.53;4.10;;;;;;;-142.25;100.00;58004.16;5102673;28;20107;-66
2021/08/18 09:53:19;;;;;;;4.30;3.90;;;;;;;-142.25;100.00;58004.16;5099439;28;20037;-66
2021/08/18 09:56:07;;;;;;;6.47;4.15;;;;;;;-142.25;100.00;58004.16;5097805;28;20119;-66
2021/08/18 09:58:35;;;;;;;6.13;4.82;;;;;;;-142.25;100.00;58004.16;5099809;28;20122;-66
2021/08/18 10:01:03;;;;;;;4.75;4.18;;;;;;;-142.25;100.00;58004.16;5099810;28;20070;-66
2021/08/18 10:03:31;;;;;;;5.65;4.38;;;;;;;-142.25;100.00;58004.16;5099451;28;20039;-66
2021/08/18 10:05:57;;;;;;;5.07;4.30;;;;;;;-142.25;100.00;58004.16;5098937;28;20122;-66
2021/08/18 10:08:23;;;;;;;5.00;4.00;;;;;;;-142.25;100.00;58004.16;5100170;28;20103;-66
2021/08/18 10:10:50;;;;;;;5.00;4.53;;;;;;;-142.25;100.00;58004.16;5100683;28;20038;-66
2021/08/18 10:13:15;;;;;;;6.10;4.68;;;;;;;-142.25;100.00;58004.16;5101163;28;20089;-66
2021/08/18 10:15:41;;;;;;;5.03;4.40;;;;;;;-142.25;100.00;58004.16;5108244;28;20016;-67
2021/08/18 10:18:08;;;;;;;6.63;6.03;;;;;;;-142.25;100.00;58004.16;5099957;28;20031;-67
2021/08/18 10:20:34;;;;;;;6.88;4.75;;;;;;;-142.25;100.00;58004.16;5100599;28;20382;-67
2021/08/18 10:23:07;;;;;;;5.45;3.95;;;;;;;-142.25;100.00;58004.16;5097547;28;20027;-67
2021/08/18 10:25:36;;;;;;;6.35;4.25;;;;;;;-142.25;100.00;58004.16;5100243;28;20365;-67
2021/08/18 10:28:06;;;;;;;5.28;4.03;;;;;;;-142.25;100.00;58004.16;5101229;28;20051;-67
2021/08/18 10:30:32;;;;;;;4.78;3.78;;;;;;;-142.25;100.00;58004.16;5097970;28;20041;-67
2021/08/18 10:32:58;;;;;;;3.80;3.30;;;;;;;-142.25;100.00;58004.16;5101702;28;20109;-67
2021/08/18 10:35:35;;;;;;;4.00;3.42;;;;;;;-142.25;100.00;58004.16;5100190;28;20661;-67
2021/08/18 10:38:29;;;;;;;4.80;4.30;;;;;;;-142.25;100.00;58004.16;5100590;28;20330;-67
2021/08/18 10:40:55;;;;;;;6.60;4.47;;;;;;;-142.25;100.00;58004.16;5096068;28;20069;-67
2021/08/18 10:43:52;;;;;;;4.50;4.00;;;;;;;-142.25;100.00;58004.16;5099338;28;20032;-67
2021/08/18 10:46:17;;;;;;;5.80;4.90;;;;;;;-142.25;100.00;58004.16;5098705;28;20096;-67
2021/08/18 10:48:55;;;;;;;5.13;4.63;;;;;;;-142.25;100.00;58004.16;5099643;28;20032;-68
2021/08/18 10:51:39;;;;;;;6.60;4.47;;;;;;;-142.25;100.00;58004.16;5100313;28;20341;-68
2021/08/18 10:54:29;;;;;;;5.53;4.32;;;;;;;-142.25;100.00;58004.16;5099212;28;20383;-66
2021/08/18 10:56:58;;;;;;;4.68;4.03;;;;;;;-142.25;100.00;58004.16;5099480;28;20088;-66
2021/08/18 10:59:35;;;;;;;5.78;4.63;;;;;;;-142.25;100.00;58004.16;5099858;28;20081;-67
2021/08/18 11:02:06;;;;;;;5.05;4.55;;;;;;;-142.25;100.00;58004.16;5099757;28;20024;-66
2021/08/18 11:04:50;;;;;;;9.25;4.88;;;;;;;-142.25;100.00;58004.16;5099915;28;20046;-67
2021/08/18 11:07:16;;;;;;;4.18;3.47;;;;;;;-142.25;100.00;58004.16;5098933;28;20055;-67
2021/08/18 11:09:57;;;;;;;4.38;3.80;;;;;;;-142.25;100.00;58004.16;5100198;28;20028;-67